San Angelo, Texas
Current Conditions -  °F | °C
As of 7:51 PM on Friday 31 Oct 2014 (Local Time) from KSJT Reporting Station
Clear Clear  
Wind Chill: 61°   Ceiling: Unl
Heat Index: 61°   Visibility: 10mi
Dew Point: 31°   Wind: 8mph
Humidity: 32%   Direction: 50°NE
Pressure: 30.31"   Gusts: NA
Location:  31.46°N, 100.44°W
Report Text: KSJT 010051Z 05007KT 10SM CLR 16/M01 A3031 RMK AO2 SLP258 T01611006
Loading
Personal Weather Stations






























Interactive Weather Map
Tropical Storm Tracking
New forecast layout! Learn more

10-Day Weather Forecast

Advertisements
Track Severe Weather on mobile